Time;durP1;ratioP1;P1;durP2;ratioP2;P2;SDS_P1;SDS_P2;PMS_P1;PMS_P2;Temp;Humidity;BMP_temperature;BMP_pressure;BME280_temperature;BME280_humidity;BME280_pressure;Samples;Min_cycle;Max_cycle;Signal;HPM_P1;HPM_P2
2023/12/28 00:01:00;;;;;;;1999.90;999.90;;;11.20;95.00;;;;;;5068158;28;20477;-71
2023/12/28 00:03:26;;;;;;;1999.90;999.90;;;11.20;95.20;;;;;;5068828;28;20496;-71
2023/12/28 00:05:54;;;;;;;1999.90;999.90;;;11.10;95.80;;;;;;5067032;28;21150;-70
2023/12/28 00:08:20;;;;;;;1999.90;999.90;;;11.00;96.00;;;;;;5058679;28;20502;-72
2023/12/28 00:10:47;;;;;;;1999.90;999.90;;;11.10;96.40;;;;;;5066363;28;20411;-71
2023/12/28 00:13:13;;;;;;;1999.90;999.90;;;11.00;96.70;;;;;;5066317;28;20415;-69
2023/12/28 00:15:40;;;;;;;1999.90;999.90;;;11.00;97.50;;;;;;5069210;28;20412;-72
2023/12/28 00:18:07;;;;;;;1999.90;999.90;;;10.90;97.70;;;;;;5067148;28;20997;-71
2023/12/28 00:20:33;;;;;;;1999.90;999.90;;;10.90;97.50;;;;;;5050864;28;20996;-73
2023/12/28 00:23:01;;;;;;;1999.90;999.90;;;10.90;98.30;;;;;;5066931;28;20485;-68
2023/12/28 00:25:28;;;;;;;1999.90;999.90;;;10.80;98.80;;;;;;5068551;28;20415;-69
2023/12/28 00:27:55;;;;;;;1999.90;999.90;;;10.90;98.80;;;;;;5068362;28;21267;-70
2023/12/28 00:30:21;;;;;;;1999.90;999.90;;;10.90;99.30;;;;;;5063984;28;20491;-68
2023/12/28 00:32:48;;;;;;;1999.90;999.90;;;11.00;99.40;;;;;;5051764;28;20429;-69
2023/12/28 00:35:15;;;;;;;1999.90;999.90;;;11.00;99.30;;;;;;5068905;28;20409;-69
2023/12/28 00:37:41;;;;;;;1999.90;999.90;;;10.90;99.20;;;;;;5067290;28;20481;-69
2023/12/28 00:40:10;;;;;;;1999.90;999.90;;;10.80;99.40;;;;;;5068767;28;20431;-69
2023/12/28 00:42:39;;;;;;;1999.90;999.90;;;10.60;98.60;;;;;;5057113;28;20430;-69
2023/12/28 00:45:07;;;;;;;1999.90;999.90;;;10.40;98.40;;;;;;5068283;28;20420;-70
2023/12/28 00:47:33;;;;;;;1999.90;999.90;;;10.20;98.70;;;;;;5068025;28;20465;-70
2023/12/28 00:50:00;;;;;;;1999.90;999.90;;;10.20;99.40;;;;;;5067000;28;20486;-68
2023/12/28 00:52:26;;;;;;;1999.90;999.90;;;9.90;99.90;;;;;;5062842;28;20433;-69
2023/12/28 00:54:53;;;;;;;1999.90;999.90;;;9.50;99.90;;;;;;5064874;28;20470;-68
2023/12/28 00:57:21;;;;;;;1999.90;999.90;;;9.50;99.90;;;;;;5067277;28;20950;-66
2023/12/28 00:59:48;;;;;;;1999.90;999.90;;;9.30;99.90;;;;;;5067655;28;20419;-69
2023/12/28 01:02:14;;;;;;;1999.90;999.90;;;9.30;99.90;;;;;;5065818;28;20487;-70
2023/12/28 01:04:41;;;;;;;1999.90;999.90;;;9.20;99.90;;;;;;5068282;28;20420;-68
2023/12/28 01:07:07;;;;;;;1999.90;999.90;;;9.50;99.90;;;;;;5070949;28;20415;-69
2023/12/28 01:09:34;;;;;;;1999.90;999.90;;;9.80;99.90;;;;;;5071823;28;20415;-69
2023/12/28 01:12:01;;;;;;;1999.90;999.90;;;9.70;99.90;;;;;;5069384;28;20463;-69
2023/12/28 01:14:29;;;;;;;1999.90;999.90;;;9.90;99.90;;;;;;5072329;28;20427;-70
2023/12/28 01:16:55;;;;;;;1999.90;999.90;;;10.00;99.90;;;;;;5076065;28;20437;-70
2023/12/28 01:19:23;;;;;;;1999.90;999.90;;;10.30;99.90;;;;;;5075807;28;20796;-69
2023/12/28 01:21:49;;;;;;;1999.90;999.90;;;10.60;99.90;;;;;;5078786;28;20414;-72
2023/12/28 01:24:16;;;;;;;1999.90;999.90;;;10.70;99.90;;;;;;5072940;28;20415;-69
2023/12/28 01:26:43;;;;;;;1999.90;999.90;;;10.90;99.90;;;;;;5068005;28;20452;-69
2023/12/28 01:29:11;;;;;;;1999.90;999.90;;;11.00;99.90;;;;;;5071039;28;20407;-69
2023/12/28 01:31:40;;;;;;;1999.90;999.90;;;11.00;99.90;;;;;;5070321;28;21076;-69
2023/12/28 01:34:09;;;;;;;1999.90;999.90;;;11.00;99.90;;;;;;5072934;28;20858;-69
2023/12/28 01:36:35;;;;;;;1999.90;999.90;;;11.00;99.90;;;;;;5072596;28;20428;-69
2023/12/28 01:39:03;;;;;;;1999.90;999.90;;;11.00;99.90;;;;;;5075751;28;20415;-69
2023/12/28 01:41:30;;;;;;;1999.90;999.90;;;11.00;99.90;;;;;;5072279;28;20514;-69
2023/12/28 01:43:56;;;;;;;1999.90;999.90;;;11.00;99.90;;;;;;5075720;28;20461;-70
2023/12/28 01:46:23;;;;;;;1999.90;999.90;;;11.10;99.90;;;;;;5080028;28;20615;-68
2023/12/28 01:48:51;;;;;;;1999.90;999.90;;;11.10;99.90;;;;;;5075325;28;20457;-69
2023/12/28 01:51:19;;;;;;;1999.90;999.90;;;11.10;99.90;;;;;;5074107;28;20757;-69
2023/12/28 01:53:48;;;;;;;1999.90;999.90;;;11.10;99.90;;;;;;5073586;28;20412;-69
2023/12/28 01:56:15;;;;;;;1999.90;999.90;;;11.10;99.90;;;;;;5075343;28;20487;-69
2023/12/28 01:58:44;;;;;;;1999.90;999.90;;;11.10;99.90;;;;;;5080655;28;20461;-69
2023/12/28 02:01:11;;;;;;;1999.90;999.90;;;11.00;99.90;;;;;;5080689;28;20431;-68
2023/12/28 02:03:38;;;;;;;1999.90;999.90;;;11.00;99.90;;;;;;5076459;28;20412;-70
2023/12/28 02:06:08;;;;;;;1999.90;999.90;;;10.90;99.90;;;;;;5080666;28;20461;-70
2023/12/28 02:08:34;;;;;;;1999.90;999.90;;;10.90;99.90;;;;;;5076432;28;20460;-69
2023/12/28 02:11:01;;;;;;;1999.90;999.90;;;10.90;99.90;;;;;;5075953;28;20493;-69
2023/12/28 02:13:28;;;;;;;1999.90;999.90;;;10.70;99.90;;;;;;5074267;28;20481;-69
2023/12/28 02:15:59;;;;;;;1999.90;999.90;;;10.80;99.90;;;;;;5074011;28;20447;-70
2023/12/28 02:18:33;;;;;;;1999.90;999.90;;;10.80;99.90;;;;;;5071546;28;20432;-69
2023/12/28 02:21:03;;;;;;;1999.90;999.90;;;10.80;99.90;;;;;;5072224;28;20432;-69
2023/12/28 02:23:32;;;;;;;1999.90;999.90;;;10.80;99.90;;;;;;5076497;28;20904;-69
2023/12/28 02:26:00;;;;;;;1999.90;999.90;;;10.80;99.90;;;;;;5077092;28;20420;-69
2023/12/28 02:28:27;;;;;;;1999.90;999.90;;;10.80;99.90;;;;;;5075463;28;20927;-70
2023/12/28 02:30:54;;;;;;;1999.90;999.90;;;10.70;99.90;;;;;;5082248;28;20829;-68
2023/12/28 02:33:27;;;;;;;1999.90;999.90;;;10.60;99.90;;;;;;5071395;28;20446;-68
2023/12/28 02:35:59;;;;;;;1999.90;999.90;;;10.70;99.90;;;;;;5074886;28;20412;-70
2023/12/28 02:38:30;;;;;;;1999.90;999.90;;;10.70;99.90;;;;;;5075080;28;20410;-68
2023/12/28 02:40:58;;;;;;;1999.90;999.90;;;10.60;99.90;;;;;;5073228;28;20489;-69
2023/12/28 02:43:26;;;;;;;1999.90;999.90;;;10.50;99.90;;;;;;5080007;28;20410;-69
2023/12/28 02:45:53;;;;;;;1999.90;999.90;;;10.60;99.90;;;;;;5075333;28;20633;-72
2023/12/28 02:48:19;;;;;;;1999.90;999.90;;;10.40;99.90;;;;;;5072744;28;20398;-69
2023/12/28 02:50:46;;;;;;;1999.90;999.90;;;10.30;99.90;;;;;;5073763;28;20407;-70
2023/12/28 02:53:14;;;;;;;1999.90;999.90;;;10.30;99.90;;;;;;5075434;28;20457;-71
2023/12/28 02:55:40;;;;;;;1999.90;999.90;;;10.30;99.90;;;;;;5074853;28;20408;-69
2023/12/28 02:58:07;;;;;;;1999.90;999.90;;;10.40;99.90;;;;;;5070722;28;20416;-71
2023/12/28 03:00:35;;;;;;;1999.90;999.90;;;10.40;99.90;;;;;;5072013;28;20446;-69
2023/12/28 03:03:01;;;;;;;1999.90;999.90;;;10.30;99.90;;;;;;5074021;28;20862;-69
2023/12/28 03:05:28;;;;;;;1999.90;999.90;;;10.30;99.90;;;;;;5077904;28;20513;-71
2023/12/28 03:07:55;;;;;;;1999.90;999.90;;;10.30;99.90;;;;;;5077888;28;20413;-69
2023/12/28 03:10:22;;;;;;;1999.90;999.90;;;10.30;99.90;;;;;;5079392;28;20439;-71
2023/12/28 03:12:49;;;;;;;1999.90;999.90;;;10.30;99.90;;;;;;5072591;28;20403;-71
2023/12/28 03:15:16;;;;;;;1999.90;999.90;;;10.10;99.90;;;;;;5071047;28;20433;-71
2023/12/28 03:17:44;;;;;;;1999.90;999.90;;;10.10;99.90;;;;;;5075179;28;20410;-72
2023/12/28 03:20:11;;;;;;;1999.90;999.90;;;10.10;99.90;;;;;;5077218;28;20461;-72
2023/12/28 03:22:38;;;;;;;1999.90;999.90;;;10.10;99.90;;;;;;5078588;28;20428;-71
2023/12/28 03:25:05;;;;;;;1999.90;999.90;;;10.20;99.90;;;;;;5069903;28;20415;-71
2023/12/28 03:27:32;;;;;;;1999.90;999.90;;;10.20;99.90;;;;;;5069049;28;20439;-69
2023/12/28 03:29:59;;;;;;;1999.90;999.90;;;10.20;99.90;;;;;;5074036;28;20828;-69
2023/12/28 03:32:26;;;;;;;1999.90;999.90;;;10.20;99.90;;;;;;5074133;28;20408;-67
2023/12/28 03:34:53;;;;;;;1999.90;999.90;;;10.20;99.90;;;;;;5070584;28;20420;-69
2023/12/28 03:37:20;;;;;;;1999.90;999.90;;;10.10;99.90;;;;;;5069803;28;20432;-69
2023/12/28 03:39:47;;;;;;;1999.90;999.90;;;10.10;99.90;;;;;;5070117;28;20465;-70
2023/12/28 03:42:14;;;;;;;1999.90;999.90;;;10.10;99.90;;;;;;5073920;28;20443;-72
2023/12/28 03:44:41;;;;;;;1999.90;999.90;;;10.10;99.90;;;;;;5075488;28;20465;-72
2023/12/28 03:47:08;;;;;;;1999.90;999.90;;;10.10;99.90;;;;;;5077463;28;20423;-70
2023/12/28 03:49:35;;;;;;;1999.90;999.90;;;10.00;99.90;;;;;;5078013;28;20411;-69
2023/12/28 03:52:03;;;;;;;1999.90;999.90;;;10.10;99.90;;;;;;5067876;28;20407;-69
2023/12/28 03:54:29;;;;;;;1999.90;999.90;;;10.30;99.90;;;;;;5073422;28;20406;-69
2023/12/28 03:56:57;;;;;;;1999.90;999.90;;;10.20;99.90;;;;;;5075077;28;20449;-70
2023/12/28 03:59:23;;;;;;;1999.90;999.90;;;10.20;99.90;;;;;;5074763;28;20417;-69
2023/12/28 04:01:50;;;;;;;1999.90;999.90;;;10.10;99.90;;;;;;5072181;28;20427;-73
2023/12/28 04:04:17;;;;;;;1999.90;999.90;;;10.10;99.90;;;;;;5069633;28;20416;-71
2023/12/28 04:06:43;;;;;;;1999.90;999.90;;;10.10;99.90;;;;;;5072904;28;20466;-71
2023/12/28 04:09:13;;;;;;;1999.90;999.90;;;10.10;99.90;;;;;;5074092;28;20422;-71
2023/12/28 04:11:40;;;;;;;1999.90;999.90;;;10.10;99.90;;;;;;5082077;28;20410;-69
2023/12/28 04:14:07;;;;;;;1999.90;999.90;;;10.20;99.90;;;;;;5075238;28;20435;-70
2023/12/28 04:16:33;;;;;;;1999.90;999.90;;;10.20;99.90;;;;;;5069610;28;20415;-71
2023/12/28 04:19:00;;;;;;;1999.90;999.90;;;10.10;99.90;;;;;;5072274;28;20824;-70
2023/12/28 04:21:27;;;;;;;1999.90;999.90;;;10.10;99.90;;;;;;5075569;28;20417;-69
2023/12/28 04:23:53;;;;;;;1999.90;999.90;;;10.10;99.90;;;;;;5075473;28;20414;-69
2023/12/28 04:26:21;;;;;;;1999.90;999.90;;;10.00;99.90;;;;;;5066361;28;20507;-69
2023/12/28 04:28:48;;;;;;;1999.90;999.90;;;10.10;99.90;;;;;;5064668;28;20809;-70
2023/12/28 04:31:14;;;;;;;1999.90;999.90;;;10.00;99.90;;;;;;5069469;28;20415;-71
2023/12/28 04:33:41;;;;;;;1999.90;999.90;;;10.00;99.90;;;;;;5069614;28;20411;-70
2023/12/28 04:36:08;;;;;;;1999.90;999.90;;;10.10;99.90;;;;;;5069589;28;20434;-69
2023/12/28 04:38:35;;;;;;;1999.90;999.90;;;10.00;99.90;;;;;;5074477;28;20431;-69
2023/12/28 04:41:03;;;;;;;1999.90;999.90;;;10.00;99.90;;;;;;5069186;28;20416;-71
2023/12/28 04:43:30;;;;;;;1999.90;999.90;;;10.00;99.90;;;;;;5074101;28;20925;-71
2023/12/28 04:45:57;;;;;;;1999.90;999.90;;;9.90;99.90;;;;;;5079024;28;21036;-69
2023/12/28 04:48:25;;;;;;;1999.90;999.90;;;9.90;99.90;;;;;;5075759;28;20484;-70
2023/12/28 04:50:52;;;;;;;1999.90;999.90;;;10.00;99.90;;;;;;5073661;28;20491;-71
2023/12/28 04:53:19;;;;;;;1999.90;999.90;;;10.00;99.90;;;;;;5074312;28;20486;-69
2023/12/28 04:55:45;;;;;;;1999.90;999.90;;;10.00;99.90;;;;;;5078396;28;20417;-69
2023/12/28 04:58:12;;;;;;;1999.90;999.90;;;10.00;99.90;;;;;;5079634;28;20473;-69
2023/12/28 05:00:40;;;;;;;1999.90;999.90;;;9.90;99.90;;;;;;5077934;28;20445;-72
2023/12/28 05:03:07;;;;;;;1999.90;999.90;;;10.00;99.90;;;;;;5068581;28;20437;-66
2023/12/28 05:05:34;;;;;;;1999.90;999.90;;;10.00;99.90;;;;;;5077132;28;20487;-70
2023/12/28 05:08:01;;;;;;;1999.90;999.90;;;9.90;99.90;;;;;;5078543;28;20411;-72
2023/12/28 05:10:27;;;;;;;1999.90;999.90;;;10.00;99.90;;;;;;5084659;28;20945;-68
2023/12/28 05:12:54;;;;;;;1999.90;999.90;;;9.90;99.90;;;;;;5071866;28;20790;-71
2023/12/28 05:15:21;;;;;;;1999.90;999.90;;;9.90;99.90;;;;;;5073660;28;20412;-69
2023/12/28 05:17:50;;;;;;;1999.90;999.90;;;9.90;99.90;;;;;;5076434;28;20423;-69
2023/12/28 05:20:17;;;;;;;1999.90;999.90;;;9.90;99.90;;;;;;5081445;28;20410;-69
2023/12/28 05:22:43;;;;;;;1999.90;999.90;;;9.90;99.90;;;;;;5076478;28;20427;-72
2023/12/28 05:25:10;;;;;;;1999.90;999.90;;;9.80;99.90;;;;;;5070822;28;20429;-68
2023/12/28 05:27:37;;;;;;;1999.90;999.90;;;9.80;99.90;;;;;;5071687;28;20491;-69
2023/12/28 05:30:04;;;;;;;1999.90;999.90;;;9.90;99.90;;;;;;5079057;28;20457;-69
2023/12/28 05:32:31;;;;;;;1999.90;999.90;;;9.90;99.90;;;;;;5082141;28;20413;-70
2023/12/28 05:34:59;;;;;;;1999.90;999.90;;;9.90;99.90;;;;;;5075106;28;20429;-69
2023/12/28 05:37:25;;;;;;;1999.90;999.90;;;9.90;99.90;;;;;;5071474;28;20443;-69
2023/12/28 05:39:52;;;;;;;1999.90;999.90;;;9.90;99.90;;;;;;5072781;28;20952;-68
2023/12/28 05:42:19;;;;;;;1999.90;999.90;;;9.90;99.90;;;;;;5078123;28;20431;-71
2023/12/28 05:44:45;;;;;;;1999.90;999.90;;;9.80;99.90;;;;;;5079556;28;20444;-69
2023/12/28 05:47:12;;;;;;;1999.90;999.90;;;9.80;99.90;;;;;;5071687;28;20432;-70
2023/12/28 05:49:39;;;;;;;1999.90;999.90;;;9.80;99.90;;;;;;5071419;28;20427;-69
2023/12/28 05:52:07;;;;;;;1999.90;999.90;;;9.70;99.90;;;;;;5077833;28;20469;-71
2023/12/28 05:54:34;;;;;;;1999.90;999.90;;;9.70;99.90;;;;;;5082040;28;20411;-71
2023/12/28 05:57:00;;;;;;;1999.90;999.90;;;9.80;99.90;;;;;;5072377;28;20415;-73
2023/12/28 05:59:27;;;;;;;1999.90;999.90;;;9.80;99.90;;;;;;5071365;28;20491;-71
2023/12/28 06:01:53;;;;;;;1999.90;999.90;;;9.80;99.90;;;;;;5072481;28;20485;-71
2023/12/28 06:04:20;;;;;;;1999.90;999.90;;;9.70;99.90;;;;;;5071328;28;20463;-71
2023/12/28 06:06:47;;;;;;;1999.90;999.90;;;9.70;99.90;;;;;;5079874;28;20433;-70
2023/12/28 06:09:15;;;;;;;1999.90;999.90;;;9.60;99.90;;;;;;5073247;28;20816;-71
2023/12/28 06:11:41;;;;;;;1999.90;999.90;;;9.70;99.90;;;;;;5070539;28;20435;-70
2023/12/28 06:14:08;;;;;;;1999.90;999.90;;;9.70;99.90;;;;;;5074201;28;20970;-71
2023/12/28 06:16:35;;;;;;;1999.90;999.90;;;9.70;99.90;;;;;;5078198;28;20412;-71
2023/12/28 06:19:02;;;;;;;1999.90;999.90;;;9.70;99.90;;;;;;5079325;28;20813;-70
2023/12/28 06:21:30;;;;;;;1999.90;999.90;;;9.70;99.90;;;;;;5070580;28;20440;-71
2023/12/28 06:23:56;;;;;;;1999.90;999.90;;;9.60;99.90;;;;;;5071407;28;20961;-69
2023/12/28 06:26:25;;;;;;;1999.90;999.90;;;9.60;99.90;;;;;;5077058;28;20445;-69
2023/12/28 06:28:51;;;;;;;1999.90;999.90;;;9.70;99.90;;;;;;5078243;28;20928;-71
2023/12/28 06:31:18;;;;;;;1999.90;999.90;;;9.70;99.90;;;;;;5070431;28;20488;-69
2023/12/28 06:33:44;;;;;;;1999.90;999.90;;;9.60;99.90;;;;;;5071615;28;20407;-70
2023/12/28 06:36:12;;;;;;;1999.90;999.90;;;9.70;99.90;;;;;;5077210;28;20476;-69
2023/12/28 06:38:39;;;;;;;1999.90;999.90;;;9.70;99.90;;;;;;5080004;28;20498;-70
2023/12/28 06:41:11;;;;;;;1999.90;999.90;;;9.60;99.90;;;;;;5080105;28;20410;-68
2023/12/28 06:43:40;;;;;;;1999.90;999.90;;;9.60;99.90;;;;;;5070972;28;20914;-69
2023/12/28 06:46:06;;;;;;;1999.90;999.90;;;9.70;99.90;;;;;;5076053;28;20495;-68
2023/12/28 06:48:33;;;;;;;1999.90;999.90;;;9.60;99.90;;;;;;5078351;28;20425;-68
2023/12/28 06:51:00;;;;;;;1999.90;999.90;;;9.50;99.90;;;;;;5077164;28;20414;-69
2023/12/28 06:53:26;;;;;;;1999.90;999.90;;;9.40;99.90;;;;;;5069964;28;21215;-70
2023/12/28 06:55:53;;;;;;;1999.90;999.90;;;9.40;99.90;;;;;;5066884;28;20465;-68
2023/12/28 06:58:20;;;;;;;1999.90;999.90;;;9.30;99.90;;;;;;5071423;28;20442;-70
2023/12/28 07:00:48;;;;;;;1999.90;999.90;;;9.30;99.90;;;;;;5080432;28;20593;-70
2023/12/28 07:03:14;;;;;;;1999.90;999.90;;;9.30;99.90;;;;;;5079197;28;20444;-67
2023/12/28 07:05:41;;;;;;;1999.90;999.90;;;9.20;99.90;;;;;;5069784;28;20431;-66
2023/12/28 07:08:08;;;;;;;1999.90;999.90;;;9.20;99.90;;;;;;5067609;28;20429;-66
2023/12/28 07:10:35;;;;;;;1999.90;999.90;;;9.30;99.90;;;;;;5068742;28;20427;-69
2023/12/28 07:13:03;;;;;;;1999.90;999.90;;;9.20;99.90;;;;;;5070338;28;20412;-70
2023/12/28 07:15:29;;;;;;;1999.90;999.90;;;9.20;99.90;;;;;;5080442;28;20477;-70
2023/12/28 07:17:57;;;;;;;1999.90;999.90;;;9.30;99.90;;;;;;5087666;28;20463;-70
2023/12/28 07:20:24;;;;;;;1999.90;999.90;;;9.30;99.90;;;;;;5074591;28;20831;-70
2023/12/28 07:22:50;;;;;;;1999.90;999.90;;;9.30;99.90;;;;;;5070509;28;20423;-70
2023/12/28 07:25:17;;;;;;;1999.90;999.90;;;9.40;99.90;;;;;;5071285;28;20500;-69
2023/12/28 07:27:44;;;;;;;1999.90;999.90;;;9.40;99.90;;;;;;5076998;28;20421;-70
2023/12/28 07:30:12;;;;;;;1999.90;999.90;;;9.40;99.90;;;;;;5076150;28;20511;-69
2023/12/28 07:32:38;;;;;;;1999.90;999.90;;;9.30;99.90;;;;;;5069614;28;20465;-70
2023/12/28 07:35:07;;;;;;;1999.90;999.90;;;9.20;99.90;;;;;;5073597;28;20415;-68
2023/12/28 07:37:34;;;;;;;1999.90;999.90;;;9.40;99.90;;;;;;5075461;28;20410;-70
2023/12/28 07:40:00;;;;;;;1999.90;999.90;;;9.50;99.90;;;;;;5065274;28;20467;-70
2023/12/28 07:42:27;;;;;;;1999.90;999.90;;;9.50;99.90;;;;;;5068911;28;20436;-67
2023/12/28 07:44:54;;;;;;;1999.90;999.90;;;9.40;99.90;;;;;;5070706;28;20423;-67
2023/12/28 07:47:21;;;;;;;1999.90;999.90;;;9.20;99.90;;;;;;5070197;28;20405;-70
2023/12/28 07:49:47;;;;;;;1999.90;999.90;;;9.10;99.90;;;;;;5067973;28;20427;-70
2023/12/28 07:52:15;;;;;;;1999.90;999.90;;;9.20;99.90;;;;;;5077923;28;20417;-69
2023/12/28 07:54:42;;;;;;;1999.90;999.90;;;9.30;99.90;;;;;;5079707;28;20418;-70
2023/12/28 07:57:08;;;;;;;1999.90;999.90;;;9.30;99.90;;;;;;5077375;28;20417;-69
2023/12/28 07:59:35;;;;;;;1999.90;999.90;;;9.30;99.90;;;;;;5070068;28;20416;-69
2023/12/28 08:02:02;;;;;;;1999.90;999.90;;;9.50;99.90;;;;;;5073487;28;20880;-72
2023/12/28 08:04:28;;;;;;;1999.90;999.90;;;9.50;99.90;;;;;;5072263;28;20460;-70
2023/12/28 08:06:55;;;;;;;1999.90;999.90;;;9.50;99.90;;;;;;5070112;28;20412;-70
2023/12/28 08:09:23;;;;;;;1999.90;999.90;;;9.60;99.90;;;;;;5073078;28;20530;-71
2023/12/28 08:11:50;;;;;;;1999.90;999.90;;;9.60;99.90;;;;;;5075998;28;20929;-70
2023/12/28 08:14:16;;;;;;;1999.90;999.90;;;9.60;99.90;;;;;;5078789;28;20421;-70
2023/12/28 08:16:43;;;;;;;1999.90;999.90;;;9.70;99.90;;;;;;5085813;28;20409;-72
2023/12/28 08:19:09;;;;;;;1999.90;999.90;;;9.60;99.90;;;;;;5070397;28;20416;-69
2023/12/28 08:21:36;;;;;;;1999.90;999.90;;;9.70;99.90;;;;;;5072432;28;20411;-70
2023/12/28 08:24:03;;;;;;;1999.90;999.90;;;9.80;99.90;;;;;;5077754;28;20992;-69
2023/12/28 08:26:32;;;;;;;1999.90;999.90;;;9.80;99.90;;;;;;5072387;28;20439;-69
2023/12/28 08:28:59;;;;;;;1999.90;999.90;;;9.80;99.90;;;;;;5081240;28;20460;-70
2023/12/28 08:31:25;;;;;;;1999.90;999.90;;;9.80;99.90;;;;;;5070102;28;20411;-69
2023/12/28 08:33:52;;;;;;;1999.90;999.90;;;9.70;99.90;;;;;;5072869;28;20474;-68
2023/12/28 08:36:19;;;;;;;1999.90;999.90;;;9.70;99.90;;;;;;5076050;28;20406;-69
2023/12/28 08:38:45;;;;;;;1999.90;999.90;;;9.80;99.90;;;;;;5077992;28;20490;-72
2023/12/28 08:41:19;;;;;;;1999.90;999.90;;;9.70;99.90;;;;;;5069622;28;20436;-69
2023/12/28 08:43:47;;;;;;;1999.90;999.90;;;9.80;99.90;;;;;;5065278;28;20431;-69
2023/12/28 08:46:14;;;;;;;1999.90;999.90;;;9.80;99.90;;;;;;5074171;28;20442;-69
2023/12/28 08:48:41;;;;;;;1999.90;999.90;;;9.80;99.90;;;;;;5078422;28;20420;-69
2023/12/28 08:51:08;;;;;;;1999.90;999.90;;;9.90;99.90;;;;;;5080912;28;20419;-71
2023/12/28 08:53:34;;;;;;;1999.90;999.90;;;9.80;99.90;;;;;;5075566;28;20420;-71
2023/12/28 08:56:01;;;;;;;1999.90;999.90;;;9.90;99.90;;;;;;5069240;28;20427;-70
2023/12/28 08:58:28;;;;;;;1999.90;999.90;;;9.80;99.90;;;;;;5075614;28;20435;-71
2023/12/28 09:00:56;;;;;;;1999.90;999.90;;;9.80;99.90;;;;;;5084460;28;20479;-70
2023/12/28 09:03:23;;;;;;;1999.90;999.90;;;9.90;99.90;;;;;;5072567;28;20444;-70
2023/12/28 09:05:49;;;;;;;1999.90;999.90;;;9.90;99.90;;;;;;5081297;28;20435;-69
2023/12/28 09:08:16;;;;;;;1999.90;999.90;;;9.80;99.90;;;;;;5069377;28;20451;-70
2023/12/28 09:10:43;;;;;;;1999.90;999.90;;;9.80;99.90;;;;;;5084171;28;20414;-70
2023/12/28 09:13:15;;;;;;;1999.90;999.90;;;9.70;99.90;;;;;;5089713;28;20818;-70
2023/12/28 09:15:42;;;;;;;1999.90;999.90;;;9.70;99.90;;;;;;5090095;28;20488;-69
2023/12/28 09:18:10;;;;;;;1999.90;999.90;;;9.80;99.90;;;;;;5075045;28;21950;-69
2023/12/28 09:20:37;;;;;;;1999.90;999.90;;;9.70;99.90;;;;;;5075233;28;20406;-70
2023/12/28 09:23:04;;;;;;;1999.90;999.90;;;9.70;99.90;;;;;;5081707;28;20488;-71
2023/12/28 09:25:30;;;;;;;1999.90;999.90;;;9.70;99.90;;;;;;5067386;28;20820;-69
2023/12/28 09:27:57;;;;;;;1999.90;999.90;;;9.80;99.90;;;;;;5063562;28;20435;-67
2023/12/28 09:30:23;;;;;;;1999.90;999.90;;;9.70;99.90;;;;;;5068867;28;20428;-70
2023/12/28 09:32:50;;;;;;;1999.90;999.90;;;9.60;99.90;;;;;;5079745;28;20418;-72
2023/12/28 09:35:18;;;;;;;1999.90;999.90;;;9.70;99.90;;;;;;5087438;28;20414;-69
2023/12/28 09:37:45;;;;;;;1999.90;999.90;;;9.90;99.90;;;;;;5084747;28;20463;-67
2023/12/28 09:40:12;;;;;;;1999.90;999.90;;;9.90;99.90;;;;;;5072813;28;20512;-70
2023/12/28 09:42:49;;;;;;;1999.90;999.90;;;10.00;99.90;;;;;;5080830;28;20912;-68
2023/12/28 09:45:16;;;;;;;1999.90;999.90;;;10.00;99.90;;;;;;5088512;28;20439;-68
2023/12/28 09:47:44;;;;;;;1999.90;999.90;;;10.10;99.90;;;;;;5075150;28;20427;-69
2023/12/28 09:50:11;;;;;;;1999.90;999.90;;;10.00;99.90;;;;;;5079937;28;20431;-68
2023/12/28 09:52:39;;;;;;;1999.90;999.90;;;10.10;99.90;;;;;;5078178;28;20414;-67
2023/12/28 09:55:08;;;;;;;1999.90;999.90;;;10.30;99.90;;;;;;5083924;28;20410;-67
2023/12/28 09:57:35;;;;;;;1999.90;999.90;;;10.40;99.90;;;;;;5083875;28;20657;-69
2023/12/28 10:00:03;;;;;;;1999.90;999.90;;;10.50;99.90;;;;;;5073554;28;20494;-70
2023/12/28 10:02:31;;;;;;;1999.90;999.90;;;10.50;99.90;;;;;;5085650;28;20489;-70
2023/12/28 10:04:57;;;;;;;1999.90;999.90;;;10.60;99.90;;;;;;5092569;28;20461;-70
2023/12/28 10:07:26;;;;;;;1999.90;999.90;;;10.80;99.90;;;;;;5092507;28;20417;-70
2023/12/28 10:09:54;;;;;;;1999.90;999.90;;;10.80;99.90;;;;;;5081736;28;20431;-67
2023/12/28 10:12:21;;;;;;;1999.90;999.90;;;10.80;99.90;;;;;;5072268;28;20432;-67
2023/12/28 10:14:48;;;;;;;1999.90;999.90;;;10.80;99.90;;;;;;5070906;28;20403;-67
2023/12/28 10:17:15;;;;;;;1999.90;999.90;;;10.80;99.90;;;;;;5073985;28;20431;-67
2023/12/28 10:19:45;;;;;;;1999.90;999.90;;;11.00;99.90;;;;;;5066401;28;20443;-67
2023/12/28 10:22:14;;;;;;;1999.90;999.90;;;11.00;99.90;;;;;;5072763;28;20423;-69
2023/12/28 10:24:43;;;;;;;1999.90;999.90;;;11.10;99.90;;;;;;5083784;28;20482;-70
2023/12/28 10:27:12;;;;;;;1999.90;999.90;;;11.10;99.90;;;;;;5082219;28;20455;-70
2023/12/28 10:29:39;;;;;;;1999.90;999.90;;;11.10;99.90;;;;;;5083647;28;20779;-69
2023/12/28 10:32:06;;;;;;;1999.90;999.90;;;11.00;99.90;;;;;;5082599;28;20423;-70
2023/12/28 10:34:34;;;;;;;1999.90;999.90;;;11.10;99.90;;;;;;5078230;28;20416;-69
2023/12/28 10:37:01;;;;;;;1999.90;999.90;;;11.10;99.90;;;;;;5081569;28;20463;-68
2023/12/28 10:39:32;;;;;;;1999.90;999.90;;;11.00;99.90;;;;;;5075768;28;20444;-70
2023/12/28 10:42:04;;;;;;;1999.90;999.90;;;11.20;99.90;;;;;;5070254;28;20515;-68
2023/12/28 10:44:38;;;;;;;1999.90;999.90;;;11.30;99.90;;;;;;5071550;28;20473;-69
2023/12/28 10:47:09;;;;;;;1999.90;999.90;;;11.40;99.90;;;;;;5084700;28;20967;-70
2023/12/28 10:49:38;;;;;;;1999.90;999.90;;;11.40;99.90;;;;;;5070161;28;20435;-71
2023/12/28 10:52:08;;;;;;;1999.90;999.90;;;11.40;99.90;;;;;;5069695;28;20431;-70
2023/12/28 10:54:44;;;;;;;1999.90;999.90;;;11.40;99.90;;;;;;5071121;28;20851;-70
2023/12/28 10:57:19;;;;;;;1999.90;999.90;;;11.50;99.90;;;;;;5088050;28;20424;-70
2023/12/28 10:59:58;;;;;;;1999.90;999.90;;;11.40;99.90;;;;;;5075800;28;20471;-70
2023/12/28 11:02:29;;;;;;;1999.90;999.90;;;11.40;99.90;;;;;;5070556;28;20489;-67
2023/12/28 11:04:57;;;;;;;1999.90;999.90;;;11.50;99.90;;;;;;5071429;28;20481;-68
2023/12/28 11:07:25;;;;;;;1999.90;999.90;;;11.40;99.90;;;;;;5091775;28;20459;-66
2023/12/28 11:09:54;;;;;;;1999.90;999.90;;;11.40;99.90;;;;;;5088642;28;20418;-68
2023/12/28 11:12:21;;;;;;;1999.90;999.90;;;11.50;99.90;;;;;;5070947;28;20408;-67
2023/12/28 11:14:52;;;;;;;1999.90;999.90;;;11.50;99.90;;;;;;5071211;28;20412;-69
2023/12/28 11:17:21;;;;;;;1999.90;999.90;;;11.40;99.90;;;;;;5090880;28;20954;-67
2023/12/28 11:19:49;;;;;;;1999.90;999.90;;;11.40;99.90;;;;;;5077404;28;20432;-68
2023/12/28 11:22:16;;;;;;;1999.90;999.90;;;11.50;99.90;;;;;;5070030;28;20978;-68
2023/12/28 11:24:43;;;;;;;1999.90;999.90;;;11.50;99.90;;;;;;5085905;28;20425;-70
2023/12/28 11:27:09;;;;;;;1999.90;999.90;;;11.50;99.90;;;;;;5090943;28;20467;-68
2023/12/28 11:29:36;;;;;;;1999.90;999.90;;;11.50;99.90;;;;;;5076719;28;20439;-68
2023/12/28 11:32:04;;;;;;;1999.90;999.90;;;11.60;99.90;;;;;;5070071;28;20412;-69
2023/12/28 11:34:34;;;;;;;1999.90;999.90;;;11.70;99.90;;;;;;5083788;28;20463;-69
2023/12/28 11:37:05;;;;;;;1999.90;999.90;;;11.70;99.90;;;;;;5090457;28;20946;-70
2023/12/28 11:39:33;;;;;;;1999.90;999.90;;;11.80;99.90;;;;;;5090894;28;20792;-70
2023/12/28 11:42:02;;;;;;;1999.90;999.90;;;11.90;99.90;;;;;;5074872;28;20433;-68
2023/12/28 11:44:29;;;;;;;1999.90;999.90;;;11.80;99.90;;;;;;5064065;28;20921;-69
2023/12/28 11:46:56;;;;;;;1999.90;999.90;;;11.80;99.90;;;;;;5087209;28;20410;-70
2023/12/28 11:49:28;;;;;;;1999.90;999.90;;;11.80;99.90;;;;;;5090725;28;20488;-68
2023/12/28 11:51:57;;;;;;;1999.90;999.90;;;11.70;99.90;;;;;;5090563;28;20413;-70
2023/12/28 11:54:24;;;;;;;1999.90;999.90;;;11.70;99.90;;;;;;5071166;28;20423;-70
2023/12/28 11:56:51;;;;;;;1999.90;999.90;;;11.80;99.90;;;;;;5070175;28;20825;-69
2023/12/28 11:59:17;;;;;;;1999.90;999.90;;;11.80;99.90;;;;;;5089763;28;20907;-71
2023/12/28 12:01:44;;;;;;;1999.90;999.90;;;11.90;99.90;;;;;;5090348;28;20410;-70
2023/12/28 12:04:12;;;;;;;1999.90;999.90;;;11.80;99.90;;;;;;5087497;28;20479;-70